createdAt,value
2023-02-11T00:00:42.837Z,32.25
2023-02-11T00:03:26.770Z,30.05
2023-02-11T00:05:59.504Z,28.50
2023-02-11T00:08:27.647Z,29.27
2023-02-11T00:10:59.003Z,27.98
2023-02-11T00:13:27.243Z,29.25
2023-02-11T00:15:57.112Z,28.92
2023-02-11T00:18:25.359Z,27.70
2023-02-11T00:20:53.557Z,27.77
2023-02-11T00:23:21.543Z,28.13
2023-02-11T00:25:49.967Z,27.17
2023-02-11T00:28:18.827Z,27.42
2023-02-11T00:30:47.089Z,28.00
2023-02-11T00:33:16.405Z,29.70
2023-02-11T00:35:44.644Z,25.88
2023-02-11T00:38:12.739Z,27.20
2023-02-11T00:40:40.955Z,28.95
2023-02-11T00:43:08.923Z,25.98
2023-02-11T00:45:37.073Z,25.65
2023-02-11T00:48:05.022Z,27.33
2023-02-11T00:50:34.679Z,25.77
2023-02-11T00:53:02.575Z,25.30
2023-02-11T00:55:30.855Z,26.70
2023-02-11T00:57:59.986Z,25.23
2023-02-11T01:00:28.674Z,25.05
2023-02-11T01:02:56.740Z,25.73
2023-02-11T01:05:25.059Z,26.33
2023-02-11T01:07:54.383Z,27.58
2023-02-11T01:10:22.592Z,26.05
2023-02-11T01:12:50.606Z,28.55
2023-02-11T01:15:20.542Z,28.33
2023-02-11T01:17:48.823Z,28.48
2023-02-11T01:20:20.400Z,27.60
2023-02-11T01:22:48.323Z,27.63
2023-02-11T01:25:18.190Z,25.50
2023-02-11T01:27:46.190Z,28.92
2023-02-11T01:30:15.522Z,25.73
2023-02-11T01:32:43.501Z,28.85
2023-02-11T01:35:11.953Z,26.73
2023-02-11T01:37:39.902Z,26.35
2023-02-11T01:40:13.258Z,28.27
2023-02-11T01:42:42.879Z,28.88
2023-02-11T01:45:53.916Z,29.27
2023-02-11T01:48:23.871Z,28.90
2023-02-11T01:50:54.095Z,28.73
2023-02-11T01:53:36.406Z,26.65
2023-02-11T01:58:52.937Z,27.35
2023-02-11T02:01:24.925Z,26.45
2023-02-11T02:03:54.175Z,27.33
2023-02-11T02:06:27.728Z,27.83
2023-02-11T02:08:58.741Z,26.65
2023-02-11T02:11:27.131Z,25.95
2023-02-11T02:13:56.751Z,25.35
2023-02-11T02:16:30.233Z,25.35
2023-02-11T02:19:18.516Z,26.20
2023-02-11T02:22:18.687Z,25.67
2023-02-11T02:25:01.040Z,27.05
2023-02-11T02:27:43.298Z,24.98
2023-02-11T02:30:46.707Z,25.73
2023-02-11T02:33:23.104Z,26.10
2023-02-11T02:35:57.699Z,24.33
2023-02-11T02:38:29.778Z,26.00
2023-02-11T02:41:01.169Z,26.33
2023-02-11T02:43:30.408Z,21.55
2023-02-11T02:46:14.545Z,25.60
2023-02-11T02:48:44.954Z,26.20
2023-02-11T02:51:35.762Z,23.92
2023-02-11T02:54:33.342Z,26.83
2023-02-11T02:57:12.106Z,24.20
2023-02-11T02:59:49.936Z,24.83
2023-02-11T03:02:23.626Z,26.20
2023-02-11T03:04:57.936Z,27.02
2023-02-11T03:07:31.471Z,26.55
2023-02-11T03:10:01.617Z,26.55
2023-02-11T03:12:32.054Z,26.00
2023-02-11T03:15:00.880Z,27.88
2023-02-11T03:17:30.031Z,25.20
2023-02-11T03:20:00.320Z,25.63
2023-02-11T03:22:33.787Z,24.08
2023-02-11T03:25:02.977Z,25.55
2023-02-11T03:27:34.961Z,25.80
2023-02-11T03:30:09.268Z,26.83
2023-02-11T03:32:39.433Z,25.13
2023-02-11T03:35:13.076Z,27.25
2023-02-11T03:37:43.555Z,25.92
2023-02-11T03:40:14.595Z,24.23
2023-02-11T03:42:45.970Z,24.48
2023-02-11T03:45:17.756Z,23.70
2023-02-11T03:47:49.982Z,23.23
2023-02-11T03:50:20.150Z,21.45
2023-02-11T03:52:49.158Z,21.00
2023-02-11T03:55:20.978Z,20.20
2023-02-11T03:57:49.211Z,23.15
2023-02-11T04:00:17.575Z,21.38
2023-02-11T04:02:45.831Z,20.30
2023-02-11T04:05:16.272Z,20.23
2023-02-11T04:07:45.532Z,18.95
2023-02-11T04:10:14.170Z,19.98
2023-02-11T04:12:42.140Z,20.10
2023-02-11T04:15:10.773Z,18.00
2023-02-11T04:17:39.074Z,19.33
2023-02-11T04:20:07.631Z,18.27
2023-02-11T04:22:35.666Z,17.95
2023-02-11T04:25:05.405Z,19.13
2023-02-11T04:27:33.469Z,20.75
2023-02-11T04:30:01.733Z,19.48
2023-02-11T04:32:29.682Z,18.88
2023-02-11T04:34:58.207Z,20.15
2023-02-11T04:37:26.205Z,18.15
2023-02-11T04:39:54.440Z,18.48
2023-02-11T04:42:23.781Z,19.23
2023-02-11T04:44:51.954Z,18.70
2023-02-11T04:47:20.299Z,21.17
2023-02-11T04:49:48.485Z,20.33
2023-02-11T04:52:16.369Z,19.85
2023-02-11T04:54:44.562Z,37.90
2023-02-11T04:57:12.469Z,19.65
2023-02-11T04:59:42.178Z,19.20
2023-02-11T05:02:10.118Z,20.52
2023-02-11T05:04:38.329Z,20.35
2023-02-11T05:07:06.274Z,20.73
2023-02-11T05:09:34.439Z,19.92
2023-02-11T05:12:02.454Z,19.58
2023-02-11T05:14:30.719Z,21.85
2023-02-11T05:16:59.986Z,20.38
2023-02-11T05:19:28.340Z,20.70
2023-02-11T05:22:02.547Z,19.00
2023-02-11T05:24:31.283Z,21.27
2023-02-11T05:26:59.206Z,21.95
2023-02-11T05:29:27.397Z,20.88
2023-02-11T05:31:55.332Z,21.27
2023-02-11T05:34:24.942Z,19.65
2023-02-11T05:36:52.854Z,19.90
2023-02-11T05:39:21.048Z,20.33
2023-02-11T05:41:48.954Z,20.13
2023-02-11T05:44:17.109Z,19.90
2023-02-11T05:46:45.064Z,19.83
2023-02-11T05:49:13.322Z,20.85
2023-02-11T05:51:42.599Z,21.20
2023-02-11T05:54:10.770Z,21.77
2023-02-11T05:56:38.790Z,21.70
2023-02-11T05:59:06.963Z,19.30
2023-02-11T06:01:35.109Z,20.67
2023-02-11T06:04:03.355Z,19.35
2023-02-11T06:06:31.426Z,21.00
2023-02-11T06:09:00.989Z,19.27
2023-02-11T06:11:29.007Z,20.50
2023-02-11T06:13:57.433Z,21.05
2023-02-11T06:16:25.405Z,19.42
2023-02-11T06:18:53.642Z,21.23
2023-02-11T06:21:21.531Z,19.77
2023-02-11T06:23:49.911Z,18.95
2023-02-11T06:26:21.325Z,19.42
2023-02-11T06:28:50.062Z,20.85
2023-02-11T06:31:18.693Z,19.40
2023-02-11T06:33:46.958Z,20.52
2023-02-11T06:36:17.134Z,19.50
2023-02-11T06:38:45.943Z,19.42
2023-02-11T06:41:15.182Z,19.55
2023-02-11T06:43:44.771Z,18.33
2023-02-11T06:46:13.055Z,17.75
2023-02-11T06:48:43.131Z,18.38
2023-02-11T06:51:13.707Z,17.13
2023-02-11T06:53:45.020Z,17.70
2023-02-11T06:56:14.692Z,19.63
2023-02-11T06:58:44.258Z,17.55
2023-02-11T07:01:14.255Z,18.88
2023-02-11T07:03:44.159Z,18.27
2023-02-11T07:06:14.599Z,18.42
2023-02-11T07:08:43.427Z,19.13
2023-02-11T07:11:12.158Z,21.13
2023-02-11T07:13:40.377Z,20.77
2023-02-11T07:16:15.675Z,24.70
2023-02-11T07:18:44.657Z,26.70
2023-02-11T07:21:13.824Z,22.63
2023-02-11T07:23:42.525Z,22.08
2023-02-11T07:26:12.129Z,21.60
2023-02-11T07:28:41.072Z,22.52
2023-02-11T07:31:11.366Z,23.73
2023-02-11T07:33:39.823Z,22.17
2023-02-11T07:36:09.559Z,21.83
2023-02-11T07:38:38.257Z,21.63
2023-02-11T07:41:07.870Z,22.13
2023-02-11T07:43:37.578Z,22.33
2023-02-11T07:46:06.586Z,22.52
2023-02-11T07:48:36.272Z,20.95
2023-02-11T07:51:09.358Z,21.23
2023-02-11T07:53:37.589Z,20.65
2023-02-11T07:56:06.879Z,19.38
2023-02-11T07:58:35.478Z,20.45
2023-02-11T08:01:04.388Z,23.75
2023-02-11T08:03:33.206Z,27.33
2023-02-11T08:06:06.138Z,22.65
2023-02-11T08:08:34.545Z,27.20
2023-02-11T08:11:07.712Z,21.70
2023-02-11T08:13:36.834Z,23.88
2023-02-11T08:16:05.955Z,25.15
2023-02-11T08:18:34.959Z,30.45
2023-02-11T08:21:07.379Z,32.28
2023-02-11T08:23:37.150Z,29.77
2023-02-11T08:26:05.874Z,31.17
2023-02-11T08:28:36.444Z,28.85
2023-02-11T08:31:06.854Z,24.33
2023-02-11T08:33:35.279Z,37.10
2023-02-11T08:36:10.183Z,25.77
2023-02-11T08:38:38.714Z,20.98
2023-02-11T08:41:06.801Z,22.25
2023-02-11T08:43:35.305Z,21.85
2023-02-11T08:46:03.947Z,20.38
2023-02-11T08:48:32.228Z,20.20
2023-02-11T08:51:00.398Z,20.23
2023-02-11T08:53:29.906Z,20.40
2023-02-11T08:55:57.875Z,20.95
2023-02-11T08:58:26.097Z,20.85
2023-02-11T09:00:54.396Z,21.30
2023-02-11T09:03:22.728Z,22.27
2023-02-11T09:05:53.394Z,20.35
2023-02-11T09:08:22.075Z,19.13
2023-02-11T09:10:51.674Z,18.85
2023-02-11T09:13:20.018Z,18.65
2023-02-11T09:15:48.043Z,17.98
2023-02-11T09:18:16.290Z,16.67
2023-02-11T09:20:44.271Z,17.73
2023-02-11T09:23:12.609Z,17.60
2023-02-11T09:25:41.321Z,15.02
2023-02-11T09:28:11.469Z,17.48
2023-02-11T09:30:39.924Z,15.65
2023-02-11T09:33:08.242Z,16.85
2023-02-11T09:35:36.200Z,16.88
2023-02-11T09:38:04.603Z,15.98
2023-02-11T09:40:32.839Z,16.90
2023-02-11T09:43:05.751Z,16.10
2023-02-11T09:45:35.037Z,15.63
2023-02-11T09:48:06.522Z,14.55
2023-02-11T09:50:36.938Z,16.98
2023-02-11T09:53:07.605Z,16.98
2023-02-11T09:55:38.095Z,16.55
2023-02-11T09:58:12.431Z,15.23
2023-02-11T10:00:45.297Z,14.60
2023-02-11T10:03:40.029Z,14.50
2023-02-11T10:06:19.636Z,17.77
2023-02-11T10:08:56.039Z,17.58
2023-02-11T10:11:32.366Z,16.10
2023-02-11T10:14:09.208Z,17.05
2023-02-11T10:16:48.807Z,17.73
2023-02-11T10:19:36.592Z,18.58
2023-02-11T10:22:10.547Z,17.00
2023-02-11T10:24:39.488Z,16.90
2023-02-11T10:27:15.750Z,18.67
2023-02-11T10:29:49.106Z,18.75
2023-02-11T10:32:27.959Z,18.73
2023-02-11T10:34:57.496Z,17.00
2023-02-11T10:37:25.524Z,18.20
2023-02-11T10:39:53.980Z,16.13
2023-02-11T10:42:21.918Z,17.65
2023-02-11T10:44:58.585Z,20.17
2023-02-11T10:47:32.728Z,19.05
2023-02-11T10:50:03.600Z,18.00
2023-02-11T10:52:32.173Z,19.10
2023-02-11T10:55:03.539Z,19.27
2023-02-11T10:57:36.914Z,18.48
2023-02-11T11:00:23.761Z,22.45
2023-02-11T11:02:58.377Z,19.63
2023-02-11T11:05:31.064Z,19.77
2023-02-11T11:08:00.824Z,19.00
2023-02-11T11:10:43.334Z,19.27
2023-02-11T11:13:26.691Z,16.73
2023-02-11T11:16:18.088Z,19.63
2023-02-11T11:18:49.226Z,19.02
2023-02-11T11:21:20.475Z,18.42
2023-02-11T11:23:50.807Z,16.98
2023-02-11T11:26:19.580Z,19.10
2023-02-11T11:28:57.577Z,17.48
2023-02-11T11:31:28.449Z,18.30
2023-02-11T11:34:00.402Z,24.83
2023-02-11T11:36:39.624Z,19.02
2023-02-11T11:39:20.314Z,18.23
2023-02-11T11:41:56.837Z,18.80
2023-02-11T11:44:31.193Z,19.80
2023-02-11T11:47:20.748Z,18.95
2023-02-11T11:49:54.931Z,19.98
2023-02-11T11:52:34.934Z,17.77
2023-02-11T11:55:07.866Z,18.25
2023-02-11T11:57:39.112Z,18.27
2023-02-11T12:00:16.328Z,18.40
2023-02-11T12:03:06.160Z,20.35
2023-02-11T12:05:39.207Z,20.10
2023-02-11T12:08:15.623Z,22.25
2023-02-11T12:10:57.467Z,20.33
2023-02-11T12:13:42.011Z,22.70
2023-02-11T12:16:19.376Z,19.90
2023-02-11T12:19:20.490Z,21.23
2023-02-11T12:21:57.653Z,21.60
2023-02-11T12:24:34.736Z,20.83
2023-02-11T12:27:07.414Z,21.00
2023-02-11T12:29:53.962Z,20.08
2023-02-11T12:32:28.380Z,22.00
2023-02-11T12:35:21.115Z,22.25
2023-02-11T12:38:08.240Z,23.25
2023-02-11T12:40:43.171Z,24.40
2023-02-11T12:43:21.229Z,24.73
2023-02-11T12:46:21.267Z,24.75
2023-02-11T12:49:20.166Z,23.90
2023-02-11T12:52:16.720Z,22.60
2023-02-11T12:54:48.795Z,27.52
2023-02-11T12:59:55.477Z,22.48
2023-02-11T13:02:30.838Z,22.02
2023-02-11T13:05:03.199Z,22.63
2023-02-11T13:07:35.959Z,22.92
2023-02-11T13:10:10.427Z,21.38
2023-02-11T13:12:56.504Z,22.13
2023-02-11T13:15:25.911Z,23.35
2023-02-11T13:17:59.070Z,24.02
2023-02-11T13:20:34.653Z,24.88
2023-02-11T13:23:09.994Z,23.15
2023-02-11T13:25:43.685Z,28.42
2023-02-11T13:28:21.964Z,27.85
2023-02-11T13:30:57.650Z,33.72
2023-02-11T13:33:33.806Z,25.92
2023-02-11T13:36:17.098Z,31.10
2023-02-11T13:38:54.733Z,24.75
2023-02-11T13:41:28.986Z,25.40
2023-02-11T13:44:06.637Z,25.52
2023-02-11T13:47:01.900Z,27.45
2023-02-11T13:49:33.413Z,26.45
2023-02-11T13:52:02.778Z,28.08
2023-02-11T13:54:33.855Z,26.65
2023-02-11T13:57:29.040Z,24.67
2023-02-11T13:59:58.135Z,27.80
2023-02-11T14:02:49.628Z,25.73
2023-02-11T14:05:42.227Z,26.03
2023-02-11T14:08:36.343Z,24.70
2023-02-11T14:11:12.324Z,25.23
2023-02-11T14:14:04.396Z,23.00
2023-02-11T14:16:38.273Z,24.67
2023-02-11T14:19:06.871Z,23.35
2023-02-11T14:21:37.839Z,22.38
2023-02-11T14:24:43.538Z,21.83
2023-02-11T14:27:20.687Z,22.52
2023-02-11T14:30:01.728Z,20.05
2023-02-11T14:32:39.558Z,20.17
2023-02-11T14:35:12.628Z,20.13
2023-02-11T14:37:50.325Z,23.95
2023-02-11T14:40:29.006Z,24.45
2023-02-11T14:42:58.232Z,23.13
2023-02-11T14:45:29.256Z,25.40
2023-02-11T14:48:02.704Z,24.67
2023-02-11T14:50:35.231Z,26.05
2023-02-11T14:53:06.214Z,26.23
2023-02-11T14:55:37.116Z,27.80
2023-02-11T14:58:13.721Z,27.60
2023-02-11T15:00:51.601Z,29.30
2023-02-11T15:03:32.372Z,30.63
2023-02-11T15:06:01.800Z,30.52
2023-02-11T15:08:30.060Z,33.25
2023-02-11T15:10:58.196Z,36.88
2023-02-11T15:13:30.994Z,33.45
2023-02-11T15:16:07.966Z,32.67
2023-02-11T15:18:38.997Z,34.22
2023-02-11T15:21:08.130Z,32.50
2023-02-11T15:23:37.123Z,33.67
2023-02-11T15:26:14.028Z,33.60
2023-02-11T15:28:51.903Z,34.35
2023-02-11T15:31:23.258Z,35.58
2023-02-11T15:33:51.889Z,37.90
2023-02-11T15:36:23.699Z,37.25
2023-02-11T15:39:17.709Z,38.92
2023-02-11T15:41:45.702Z,38.75
2023-02-11T15:44:31.062Z,40.15
2023-02-11T15:47:00.683Z,39.67
2023-02-11T15:49:28.943Z,40.00
2023-02-11T15:51:58.976Z,43.08
2023-02-11T15:54:29.453Z,42.28
2023-02-11T15:57:02.050Z,46.90
2023-02-11T15:59:31.857Z,46.65
2023-02-11T16:02:08.440Z,43.20
2023-02-11T16:04:37.578Z,45.60
2023-02-11T16:07:06.470Z,46.78
2023-02-11T16:09:36.425Z,53.08
2023-02-11T16:12:07.432Z,50.60
2023-02-11T16:14:39.097Z,52.90
2023-02-11T16:17:10.488Z,37.83
2023-02-11T16:19:44.451Z,43.17
2023-02-11T16:22:17.268Z,42.70
2023-02-11T16:24:48.013Z,45.65
2023-02-11T16:27:22.634Z,42.97
2023-02-11T16:29:51.545Z,40.83
2023-02-11T16:32:23.165Z,42.67
2023-02-11T16:34:52.281Z,40.47
2023-02-11T16:37:20.280Z,37.42
2023-02-11T16:39:48.500Z,44.70
2023-02-11T16:42:16.463Z,43.53
2023-02-11T16:44:44.645Z,42.40
2023-02-11T16:47:23.992Z,42.60
2023-02-11T16:49:52.252Z,41.42
2023-02-11T16:52:22.154Z,39.53
2023-02-11T16:54:50.730Z,44.60
2023-02-11T16:57:20.600Z,35.20
2023-02-11T16:59:50.270Z,44.95
2023-02-11T17:02:23.631Z,28.70
2023-02-11T17:04:54.125Z,41.15
2023-02-11T17:07:22.263Z,37.80
2023-02-11T17:09:51.682Z,41.47
2023-02-11T17:12:19.778Z,42.17
2023-02-11T17:14:48.018Z,43.33
2023-02-11T17:17:16.575Z,43.80
2023-02-11T17:19:44.937Z,43.30
2023-02-11T17:22:14.178Z,39.70
2023-02-11T17:24:42.387Z,33.15
2023-02-11T17:27:11.693Z,40.40
2023-02-11T17:29:39.898Z,33.97
2023-02-11T17:32:07.982Z,34.78
2023-02-11T17:34:36.194Z,36.85
2023-02-11T17:37:08.997Z,33.72
2023-02-11T17:39:39.536Z,37.25
2023-02-11T17:42:08.613Z,39.38
2023-02-11T17:44:37.257Z,35.10
2023-02-11T17:47:05.289Z,35.35
2023-02-11T17:49:33.490Z,35.22
2023-02-11T17:52:01.406Z,35.78
2023-02-11T17:54:29.678Z,36.80
2023-02-11T17:56:59.006Z,35.78
2023-02-11T17:59:31.547Z,31.70
2023-02-11T18:04:27.669Z,27.02
2023-02-11T18:06:55.723Z,28.05
2023-02-11T18:09:24.110Z,31.98
2023-02-11T18:11:52.617Z,33.58
2023-02-11T18:14:23.087Z,33.42
2023-02-11T18:16:51.499Z,29.58
2023-02-11T18:19:20.224Z,32.03
2023-02-11T18:21:50.214Z,29.55
2023-02-11T18:24:19.103Z,27.75
2023-02-11T18:26:47.029Z,26.77
2023-02-11T18:29:15.311Z,21.85
2023-02-11T18:31:44.668Z,22.13
2023-02-11T18:34:13.266Z,32.45
2023-02-11T18:36:41.188Z,29.02
2023-02-11T18:39:09.488Z,32.17
2023-02-11T18:41:39.978Z,30.08
2023-02-11T18:44:08.658Z,33.63
2023-02-11T18:46:36.621Z,33.88
2023-02-11T18:49:06.149Z,29.00
2023-02-11T18:51:34.095Z,31.08
2023-02-11T18:54:02.319Z,30.50
2023-02-11T18:56:30.392Z,35.28
2023-02-11T18:59:01.060Z,35.72
2023-02-11T19:01:30.113Z,35.85
2023-02-11T19:03:59.788Z,35.78
2023-02-11T19:06:30.707Z,24.17
2023-02-11T19:09:01.731Z,33.38
2023-02-11T19:11:49.804Z,35.33
2023-02-11T19:14:21.067Z,35.22
2023-02-11T19:16:50.555Z,37.70
2023-02-11T19:19:19.466Z,37.03
2023-02-11T19:21:49.012Z,38.55
2023-02-11T19:24:19.902Z,28.60
2023-02-11T19:26:48.613Z,38.08
2023-02-11T19:29:17.241Z,36.92
2023-02-11T19:31:46.164Z,39.40
2023-02-11T19:34:17.623Z,28.10
2023-02-11T19:36:45.515Z,41.38
2023-02-11T19:39:15.065Z,41.03
2023-02-11T19:41:43.221Z,31.52
2023-02-11T19:44:11.454Z,38.97
2023-02-11T19:46:41.579Z,41.20
2023-02-11T19:49:11.851Z,41.60
2023-02-11T19:51:39.788Z,41.55
2023-02-11T19:54:08.192Z,41.25
2023-02-11T19:56:38.264Z,40.83
2023-02-11T19:59:08.821Z,40.42
2023-02-11T20:01:37.486Z,27.65
2023-02-11T20:04:06.040Z,36.13
2023-02-11T20:06:35.266Z,35.60
2023-02-11T20:09:06.210Z,31.10
2023-02-11T20:11:34.912Z,36.97
2023-02-11T20:14:06.689Z,38.35
2023-02-11T20:16:47.422Z,37.63
2023-02-11T20:19:17.791Z,38.60
2023-02-11T20:21:47.856Z,23.98
2023-02-11T20:24:16.459Z,36.83
2023-02-11T20:26:46.432Z,37.80
2023-02-11T20:29:16.244Z,35.55
2023-02-11T20:31:44.320Z,38.97
2023-02-11T20:34:12.906Z,41.22
2023-02-11T20:36:41.281Z,40.03
2023-02-11T20:39:11.014Z,35.20
2023-02-11T20:41:39.844Z,37.30
2023-02-11T20:44:11.482Z,41.70
2023-02-11T20:46:43.595Z,43.92
2023-02-11T20:49:12.879Z,33.22
2023-02-11T20:51:41.224Z,42.47
2023-02-11T20:54:13.330Z,37.25
2023-02-11T20:56:41.515Z,36.17
2023-02-11T20:59:10.389Z,39.22
2023-02-11T21:01:41.425Z,42.83
2023-02-11T21:04:12.706Z,42.63
2023-02-11T21:06:42.346Z,38.03
2023-02-11T21:09:13.670Z,40.42
2023-02-11T21:11:41.870Z,44.90
2023-02-11T21:14:10.199Z,46.92
2023-02-11T21:16:38.217Z,47.17
2023-02-11T21:19:07.927Z,46.78
2023-02-11T21:21:36.402Z,47.40
2023-02-11T21:24:05.050Z,48.42
2023-02-11T21:26:33.040Z,48.33
2023-02-11T21:29:01.310Z,47.53
2023-02-11T21:31:32.305Z,52.40
2023-02-11T21:34:00.611Z,47.83
2023-02-11T21:36:31.096Z,52.67
2023-02-11T21:39:00.116Z,52.35
2023-02-11T21:41:28.200Z,46.70
2023-02-11T21:43:56.466Z,54.65
2023-02-11T21:46:24.719Z,52.35
2023-02-11T21:48:53.021Z,55.20
2023-02-11T21:51:24.162Z,53.67
2023-02-11T21:53:56.222Z,53.90
2023-02-11T21:56:26.299Z,56.83
2023-02-11T21:58:55.846Z,50.83
2023-02-11T22:01:26.413Z,54.72
2023-02-11T22:03:55.674Z,55.97
2023-02-11T22:06:26.192Z,51.90
2023-02-11T22:08:56.215Z,47.35
2023-02-11T22:11:25.058Z,53.40
2023-02-11T22:13:54.955Z,51.95
2023-02-11T22:16:23.595Z,53.88
2023-02-11T22:18:51.942Z,53.53
2023-02-11T22:21:21.618Z,55.45
2023-02-11T22:23:50.019Z,55.20
2023-02-11T22:26:20.835Z,54.45
2023-02-11T22:28:49.902Z,51.30
2023-02-11T22:31:19.899Z,50.17
2023-02-11T22:33:48.327Z,50.03
2023-02-11T22:36:18.224Z,54.85
2023-02-11T22:38:46.688Z,53.92
2023-02-11T22:41:15.094Z,48.30
2023-02-11T22:43:45.143Z,54.53
2023-02-11T22:46:16.421Z,50.88
2023-02-11T22:48:44.736Z,51.85
2023-02-11T22:51:14.538Z,55.17
2023-02-11T22:53:43.584Z,54.47
2023-02-11T22:56:15.339Z,53.13
2023-02-11T23:01:13.656Z,43.70
2023-02-11T23:03:41.916Z,52.08
2023-02-11T23:06:10.198Z,54.22
2023-02-11T23:08:39.499Z,56.50
2023-02-11T23:11:09.728Z,53.00
2023-02-11T23:13:40.315Z,57.47
2023-02-11T23:16:11.841Z,55.80
2023-02-11T23:18:41.515Z,58.25
2023-02-11T23:21:12.758Z,56.33
2023-02-11T23:23:41.330Z,58.22
2023-02-11T23:26:10.671Z,55.80
2023-02-11T23:28:38.940Z,56.38
2023-02-11T23:31:18.996Z,52.42
2023-02-11T23:33:48.117Z,55.53
2023-02-11T23:36:16.851Z,57.33
2023-02-11T23:38:45.293Z,49.05
2023-02-11T23:41:13.622Z,52.83
2023-02-11T23:43:42.223Z,57.25
2023-02-11T23:46:11.035Z,54.95
2023-02-11T23:48:41.235Z,54.47
2023-02-11T23:51:10.515Z,52.65
2023-02-11T23:53:38.821Z,56.72
2023-02-11T23:56:11.256Z,59.83
2023-02-11T23:58:39.426Z,57.05
